This is the latest recevied weather packets stored in our database for station/object DL8TF-13. If no packets are shown the sender has not sent any weather packets the latest 10 day(s).
| Time | Temp. | Humidity | Pressure | Rain* | Wind** | Luminosity | Snow |
|---|---|---|---|---|---|---|---|
| 1778175270 | 15.56° C | 58% | 984 hPa | - | - | - | - |
| 1778174670 | 16.11° C | 59% | 984 hPa | - | - | - | - |
| 1778174070 | 16.11° C | 56% | 984 hPa | - | - | - | - |
| 1778173470 | 16.67° C | 56% | 984 hPa | - | - | - | - |
| 1778172870 | 16.67° C | 52% | 984 hPa | - | - | - | - |
| 1778172269 | 16.67° C | 53% | 984 hPa | - | - | - | - |
| 1778171669 | 17.22° C | 50% | 984 hPa | - | - | - | - |
| 1778171069 | 18.33° C | 48% | 984 hPa | - | - | - | - |
| 1778170469 | 18.89° C | 47% | 984 hPa | - | - | - | - |
| 1778169869 | 18.89° C | 45% | 984 hPa | - | - | - | - |
| 1778169269 | 19.44° C | 46% | 984 hPa | - | - | - | - |
| 1778168669 | 19.44° C | 46% | 984 hPa | - | - | - | - |
| 1778168069 | 20° C | 44% | 984 hPa | - | - | - | - |
| 1778167469 | 19.44° C | 49% | 984 hPa | - | - | - | - |
| 1778166869 | 18.33° C | 49% | 984 hPa | - | - | - | - |
| 1778166269 | 17.78° C | 50% | 984 hPa | - | - | - | - |
| 1778165669 | 17.78° C | 50% | 984 hPa | - | - | - | - |
| 1778165069 | 19.44° C | 45% | 984 hPa | - | - | - | - |
| 1778164469 | 17.22° C | 52% | 984 hPa | - | - | - | - |
| 1778163868 | 17.22° C | 52% | 984 hPa | - | - | - | - |
| 1778163268 | 17.22° C | 49% | 984 hPa | - | - | - | - |
| 1778162668 | 17.78° C | 47% | 984 hPa | - | - | - | - |
| 1778162068 | 20.56° C | 40% | 984 hPa | - | - | - | - |
| 1778161468 | 21.67° C | 40% | 984 hPa | - | - | - | - |
| 1778160868 | 18.33° C | 49% | 984 hPa | - | - | - | - |
* Rain since midnight (hover to see other rain measurements)
** Current wind speed in m/s (hover to see current wind gust speed)